createdAt,value
2023-05-03T00:00:00.430Z,24.70
2023-05-03T00:02:28.879Z,25.20
2023-05-03T00:04:57.463Z,26.20
2023-05-03T00:07:25.658Z,28.30
2023-05-03T00:09:53.817Z,35.40
2023-05-03T00:12:22.058Z,48.00
2023-05-03T00:14:50.000Z,41.00
2023-05-03T00:17:17.866Z,37.60
2023-05-03T00:19:46.084Z,37.30
2023-05-03T00:22:14.394Z,34.90
2023-05-03T00:24:42.275Z,35.40
2023-05-03T00:27:10.328Z,31.40
2023-05-03T00:29:38.235Z,37.40
2023-05-03T00:32:06.246Z,37.10
2023-05-03T00:34:34.138Z,32.10
2023-05-03T00:37:02.146Z,32.90
2023-05-03T00:39:33.389Z,33.20
2023-05-03T00:42:04.309Z,30.10
2023-05-03T00:44:33.164Z,28.30
2023-05-03T00:47:01.891Z,30.10
2023-05-03T00:49:29.933Z,24.00
2023-05-03T00:51:59.635Z,22.20
2023-05-03T00:54:28.880Z,22.70
2023-05-03T00:56:57.579Z,22.80
2023-05-03T00:59:26.508Z,22.00
2023-05-03T01:01:54.520Z,22.70
2023-05-03T01:04:23.635Z,23.20
2023-05-03T01:07:10.581Z,23.40
2023-05-03T01:10:01.098Z,27.50
2023-05-03T01:12:35.137Z,23.60
2023-05-03T01:15:30.971Z,24.50
2023-05-03T01:18:07.986Z,23.90
2023-05-03T01:20:37.594Z,23.70
2023-05-03T01:23:14.752Z,23.20
2023-05-03T01:25:42.664Z,23.40
2023-05-03T01:28:11.054Z,24.90
2023-05-03T01:30:40.774Z,27.40
2023-05-03T01:33:36.235Z,25.50
2023-05-03T01:36:30.041Z,23.90
2023-05-03T01:39:04.648Z,24.50
2023-05-03T01:41:33.857Z,24.10
2023-05-03T01:44:04.527Z,24.50
2023-05-03T01:46:32.562Z,24.30
2023-05-03T01:49:00.463Z,23.70
2023-05-03T01:51:31.246Z,24.20
2023-05-03T01:53:59.180Z,25.30
2023-05-03T01:56:27.196Z,24.90
2023-05-03T01:58:55.116Z,25.00
2023-05-03T02:01:23.144Z,25.10
2023-05-03T02:03:51.083Z,24.10
2023-05-03T02:06:19.115Z,25.30
2023-05-03T02:08:47.191Z,24.20
2023-05-03T02:11:15.616Z,25.40
2023-05-03T02:13:43.530Z,24.70
2023-05-03T02:16:11.416Z,24.50
2023-05-03T02:18:39.925Z,26.40
2023-05-03T02:21:10.306Z,24.60
2023-05-03T02:23:38.301Z,22.30
2023-05-03T02:26:06.789Z,25.40
2023-05-03T02:28:35.309Z,24.20
2023-05-03T02:31:06.554Z,23.90
2023-05-03T02:33:34.770Z,23.80
2023-05-03T02:36:02.806Z,26.30
2023-05-03T02:38:30.672Z,27.70
2023-05-03T02:40:59.835Z,27.70
2023-05-03T02:43:27.806Z,25.10
2023-05-03T02:45:55.822Z,24.80
2023-05-03T02:48:24.787Z,26.20
2023-05-03T02:50:52.749Z,26.20
2023-05-03T02:53:21.211Z,25.70
2023-05-03T02:55:50.089Z,25.20
2023-05-03T02:58:18.177Z,26.00
2023-05-03T03:00:46.221Z,26.50
2023-05-03T03:03:15.186Z,29.10
2023-05-03T03:05:43.288Z,30.50
2023-05-03T03:08:11.161Z,28.70
2023-05-03T03:10:39.960Z,28.70
2023-05-03T03:13:07.891Z,28.90
2023-05-03T03:15:36.177Z,28.80
2023-05-03T03:18:04.458Z,26.50
2023-05-03T03:20:32.514Z,26.80
2023-05-03T03:23:00.443Z,27.90
2023-05-03T03:25:28.357Z,29.90
2023-05-03T03:27:56.988Z,30.30
2023-05-03T03:30:26.525Z,30.20
2023-05-03T03:33:03.014Z,28.50
2023-05-03T03:35:34.742Z,28.30
2023-05-03T03:38:03.473Z,28.90
2023-05-03T03:40:31.892Z,27.90
2023-05-03T03:42:59.873Z,27.70
2023-05-03T03:45:27.810Z,27.80
2023-05-03T03:47:58.292Z,27.80
2023-05-03T03:50:26.911Z,30.40
2023-05-03T03:52:54.869Z,29.90
2023-05-03T03:55:23.528Z,30.30
2023-05-03T03:57:52.952Z,29.70
2023-05-03T04:00:21.597Z,29.60
2023-05-03T04:02:51.909Z,30.50
2023-05-03T04:05:20.557Z,30.00
2023-05-03T04:07:49.647Z,31.80
2023-05-03T04:10:18.347Z,32.90
2023-05-03T04:12:46.510Z,34.60
2023-05-03T04:15:15.746Z,34.80
2023-05-03T04:17:44.211Z,34.30
2023-05-03T04:20:14.033Z,32.80
2023-05-03T04:22:45.017Z,34.10
2023-05-03T04:25:14.385Z,32.60
2023-05-03T04:27:45.226Z,32.90
2023-05-03T04:30:15.316Z,35.50
2023-05-03T04:32:43.924Z,35.40
2023-05-03T04:35:12.914Z,35.20
2023-05-03T04:37:44.515Z,39.40
2023-05-03T04:40:14.630Z,34.80
2023-05-03T04:42:44.858Z,35.30
2023-05-03T04:45:14.631Z,33.70
2023-05-03T04:47:43.329Z,34.10
2023-05-03T04:50:11.489Z,46.10
2023-05-03T04:52:41.437Z,35.50
2023-05-03T04:55:10.435Z,35.70
2023-05-03T04:57:38.886Z,31.80
2023-05-03T05:00:12.102Z,33.30
2023-05-03T05:02:43.971Z,32.10
2023-05-03T05:05:12.523Z,30.10
2023-05-03T05:07:40.906Z,27.80
2023-05-03T05:10:10.927Z,28.50
2023-05-03T05:12:38.921Z,28.40
2023-05-03T05:15:07.477Z,26.30
2023-05-03T05:17:36.055Z,25.30
2023-05-03T05:20:07.425Z,24.20
2023-05-03T05:22:35.972Z,22.20
2023-05-03T05:25:04.390Z,20.50
2023-05-03T05:27:32.854Z,18.30
2023-05-03T05:30:01.575Z,20.20
2023-05-03T05:32:32.109Z,17.80
2023-05-03T05:35:00.004Z,16.80
2023-05-03T05:37:35.429Z,16.20
2023-05-03T05:40:05.338Z,14.20
2023-05-03T05:42:37.929Z,14.80
2023-05-03T05:45:08.301Z,13.30
2023-05-03T05:47:37.348Z,11.50
2023-05-03T05:50:16.706Z,13.20
2023-05-03T05:52:46.919Z,12.90
2023-05-03T05:55:15.998Z,12.00
2023-05-03T05:57:46.203Z,10.60
2023-05-03T06:00:19.322Z,11.30
2023-05-03T06:02:48.137Z,11.70
2023-05-03T06:05:20.973Z,9.10
2023-05-03T06:07:50.283Z,9.50
2023-05-03T06:10:19.063Z,14.80
2023-05-03T06:12:51.205Z,8.10
2023-05-03T06:15:23.539Z,9.50
2023-05-03T06:17:51.601Z,8.40
2023-05-03T06:20:19.653Z,8.00
2023-05-03T06:22:49.349Z,8.50
2023-05-03T06:25:18.120Z,8.30
2023-05-03T06:27:51.433Z,8.30
2023-05-03T06:30:23.890Z,9.70
2023-05-03T06:32:52.321Z,12.80
2023-05-03T06:35:22.074Z,11.30
2023-05-03T06:37:50.991Z,19.20
2023-05-03T06:40:19.143Z,8.60
2023-05-03T06:42:47.075Z,9.70
2023-05-03T06:45:20.992Z,9.40
2023-05-03T06:47:50.457Z,15.40
2023-05-03T06:50:20.299Z,10.90
2023-05-03T06:52:49.146Z,15.80
2023-05-03T06:55:17.719Z,11.90
2023-05-03T06:57:48.387Z,14.90
2023-05-03T07:00:16.675Z,12.80
2023-05-03T07:02:44.804Z,12.30
2023-05-03T07:05:13.029Z,12.50
2023-05-03T07:07:41.055Z,12.10
2023-05-03T07:10:09.161Z,12.70
2023-05-03T07:12:37.471Z,11.80
2023-05-03T07:15:05.822Z,10.60
2023-05-03T07:17:33.817Z,10.60
2023-05-03T07:20:01.976Z,11.60
2023-05-03T07:22:30.132Z,11.20
2023-05-03T07:24:59.855Z,18.20
2023-05-03T07:27:28.321Z,11.90
2023-05-03T07:29:56.263Z,12.40
2023-05-03T07:32:24.671Z,14.40
2023-05-03T07:34:53.389Z,12.10
2023-05-03T07:37:21.616Z,14.10
2023-05-03T07:39:49.497Z,12.40
2023-05-03T07:42:17.464Z,12.30
2023-05-03T07:44:45.406Z,13.90
2023-05-03T07:47:13.279Z,12.40
2023-05-03T07:49:41.281Z,13.80
2023-05-03T07:52:09.409Z,12.80
2023-05-03T07:54:37.418Z,13.10
2023-05-03T07:57:06.385Z,11.40
2023-05-03T07:59:34.251Z,11.20
2023-05-03T08:02:02.247Z,12.60
2023-05-03T08:04:30.702Z,12.20
2023-05-03T08:07:02.924Z,11.20
2023-05-03T08:09:31.165Z,10.80
2023-05-03T08:11:59.178Z,11.30
2023-05-03T08:14:27.821Z,13.30
2023-05-03T08:16:55.728Z,11.30
2023-05-03T08:19:23.588Z,12.90
2023-05-03T08:21:52.378Z,10.50
2023-05-03T08:24:21.019Z,10.70
2023-05-03T08:26:49.327Z,11.40
2023-05-03T08:29:17.265Z,11.20
2023-05-03T08:31:45.172Z,9.60
2023-05-03T08:34:13.404Z,9.00
2023-05-03T08:36:41.678Z,10.10
2023-05-03T08:39:10.466Z,11.10
2023-05-03T08:41:39.859Z,9.70
2023-05-03T08:44:11.614Z,9.60
2023-05-03T08:46:39.562Z,10.00
2023-05-03T08:49:07.799Z,8.70
2023-05-03T08:51:40.426Z,8.90
2023-05-03T08:54:08.816Z,10.50
2023-05-03T08:56:41.810Z,12.60
2023-05-03T08:59:13.068Z,8.70
2023-05-03T09:01:42.367Z,8.10
2023-05-03T09:04:11.725Z,7.30
2023-05-03T09:06:40.368Z,9.30
2023-05-03T09:09:08.981Z,10.80
2023-05-03T09:11:39.299Z,7.40
2023-05-03T09:14:10.697Z,7.40
2023-05-03T09:16:41.116Z,7.30
2023-05-03T09:19:11.917Z,10.00
2023-05-03T09:21:42.571Z,7.80
2023-05-03T09:24:21.608Z,7.80
2023-05-03T09:26:53.249Z,8.10
2023-05-03T09:29:36.168Z,6.60
2023-05-03T09:32:05.992Z,6.80
2023-05-03T09:34:35.794Z,10.50
2023-05-03T09:37:03.779Z,8.50
2023-05-03T09:39:32.389Z,8.50
2023-05-03T09:42:10.919Z,10.40
2023-05-03T09:44:45.646Z,12.40
2023-05-03T09:47:13.578Z,10.20
2023-05-03T09:49:41.852Z,9.60
2023-05-03T09:52:09.915Z,8.60
2023-05-03T09:54:38.421Z,7.30
2023-05-03T09:57:08.081Z,7.90
2023-05-03T09:59:38.204Z,7.80
2023-05-03T10:02:08.450Z,7.80
2023-05-03T10:04:44.496Z,6.60
2023-05-03T10:07:22.217Z,7.20
2023-05-03T10:09:50.162Z,7.20
2023-05-03T10:12:19.965Z,8.30
2023-05-03T10:14:51.574Z,6.80
2023-05-03T10:17:31.937Z,6.80
2023-05-03T10:20:40.090Z,6.50
2023-05-03T10:23:10.401Z,6.80
2023-05-03T10:25:40.188Z,7.90
2023-05-03T10:28:10.066Z,7.40
2023-05-03T10:30:39.905Z,11.10
2023-05-03T10:33:14.363Z,8.30
2023-05-03T10:35:49.200Z,7.70
2023-05-03T10:38:22.078Z,9.40
2023-05-03T10:40:50.576Z,10.80
2023-05-03T10:43:33.445Z,10.50
2023-05-03T10:46:06.150Z,10.30
2023-05-03T10:48:35.277Z,10.50
2023-05-03T10:51:37.409Z,11.40
2023-05-03T10:54:05.638Z,11.50
2023-05-03T10:56:33.613Z,9.60
2023-05-03T10:59:01.737Z,9.40
2023-05-03T11:01:30.104Z,9.50
2023-05-03T11:04:12.340Z,11.90
2023-05-03T11:06:41.668Z,10.60
2023-05-03T11:09:12.300Z,9.60
2023-05-03T11:11:42.101Z,11.20
2023-05-03T11:14:11.735Z,11.60
2023-05-03T11:16:48.191Z,11.00
2023-05-03T11:19:16.973Z,12.00
2023-05-03T11:21:46.429Z,11.90
2023-05-03T11:24:15.721Z,10.40
2023-05-03T11:26:43.835Z,11.00
2023-05-03T11:29:13.344Z,10.70
2023-05-03T11:31:43.440Z,8.50
2023-05-03T11:34:13.000Z,11.00
2023-05-03T11:36:42.718Z,9.60
2023-05-03T11:39:14.721Z,10.50
2023-05-03T11:41:42.773Z,9.50
2023-05-03T11:44:16.867Z,8.90
2023-05-03T11:46:47.894Z,9.20
2023-05-03T11:49:20.117Z,9.30
2023-05-03T11:51:51.574Z,9.60
2023-05-03T11:54:26.822Z,10.20
2023-05-03T11:57:02.066Z,9.40
2023-05-03T12:02:11.848Z,9.40
2023-05-03T12:04:42.902Z,9.40
2023-05-03T12:07:14.995Z,10.50
2023-05-03T12:09:53.258Z,10.20
2023-05-03T12:12:32.314Z,10.00
2023-05-03T12:15:03.782Z,10.20
2023-05-03T12:17:37.239Z,10.00
2023-05-03T12:22:58.545Z,9.10
2023-05-03T12:25:33.101Z,8.80
2023-05-03T12:30:36.272Z,8.90
2023-05-03T12:33:05.434Z,9.20
2023-05-03T12:35:34.518Z,9.60
2023-05-03T12:38:04.575Z,10.20
2023-05-03T12:40:34.783Z,10.00
2023-05-03T12:43:03.474Z,10.60
2023-05-03T12:45:34.588Z,12.50
2023-05-03T12:48:03.820Z,11.60
2023-05-03T12:50:32.620Z,12.30
2023-05-03T12:53:02.979Z,10.90
2023-05-03T12:55:35.465Z,10.20
2023-05-03T12:58:26.783Z,11.20
2023-05-03T13:03:32.415Z,11.00
2023-05-03T13:06:12.409Z,12.50
2023-05-03T13:08:49.685Z,12.50
2023-05-03T13:11:19.835Z,12.90
2023-05-03T13:13:48.176Z,11.00
2023-05-03T13:16:16.269Z,11.60
2023-05-03T13:18:45.591Z,11.00
2023-05-03T13:21:13.804Z,12.40
2023-05-03T13:23:41.674Z,12.00
2023-05-03T13:26:09.584Z,11.80
2023-05-03T13:28:37.507Z,11.20
2023-05-03T13:31:06.396Z,11.20
2023-05-03T13:33:38.199Z,14.70
2023-05-03T13:36:06.986Z,15.40
2023-05-03T13:38:35.664Z,12.90
2023-05-03T13:41:08.672Z,13.00
2023-05-03T13:43:36.780Z,12.60
2023-05-03T13:46:04.739Z,11.30
2023-05-03T13:48:32.817Z,12.30
2023-05-03T13:51:08.258Z,13.10
2023-05-03T13:53:36.198Z,13.00
2023-05-03T13:56:05.957Z,11.70
2023-05-03T13:58:36.401Z,11.70
2023-05-03T14:01:04.580Z,11.00
2023-05-03T14:03:34.297Z,10.20
2023-05-03T14:06:02.788Z,11.10
2023-05-03T14:08:30.751Z,11.50
2023-05-03T14:10:58.686Z,10.40
2023-05-03T14:13:29.781Z,11.30
2023-05-03T14:16:00.986Z,12.50
2023-05-03T14:18:28.994Z,11.70
2023-05-03T14:20:57.296Z,11.50
2023-05-03T14:23:26.297Z,10.90
2023-05-03T14:25:54.294Z,12.00
2023-05-03T14:28:22.296Z,10.80
2023-05-03T14:30:50.215Z,11.40
2023-05-03T14:33:18.644Z,10.20
2023-05-03T14:35:46.881Z,10.40
2023-05-03T14:38:14.864Z,10.70
2023-05-03T14:40:43.193Z,11.50
2023-05-03T14:43:11.192Z,12.70
2023-05-03T14:45:39.302Z,11.60
2023-05-03T14:48:07.535Z,11.00
2023-05-03T14:50:35.792Z,11.60
2023-05-03T14:53:03.824Z,11.20
2023-05-03T14:55:32.452Z,11.90
2023-05-03T14:58:06.712Z,19.20
2023-05-03T15:00:40.422Z,12.70
2023-05-03T15:03:11.992Z,14.00
2023-05-03T15:05:48.395Z,13.30
2023-05-03T15:08:19.432Z,13.30
2023-05-03T15:10:47.934Z,12.10
2023-05-03T15:13:16.978Z,13.00
2023-05-03T15:15:46.148Z,11.40
2023-05-03T15:18:15.733Z,12.40
2023-05-03T15:20:44.077Z,15.40
2023-05-03T15:23:12.075Z,12.20
2023-05-03T15:25:40.040Z,12.40
2023-05-03T15:28:08.093Z,11.70
2023-05-03T15:30:36.230Z,14.70
2023-05-03T15:33:05.077Z,15.80
2023-05-03T15:35:33.342Z,13.00
2023-05-03T15:38:01.478Z,13.30
2023-05-03T15:40:29.642Z,13.70
2023-05-03T15:42:57.514Z,13.10
2023-05-03T15:45:28.373Z,13.10
2023-05-03T15:47:57.127Z,15.60
2023-05-03T15:50:25.359Z,13.40
2023-05-03T15:52:53.271Z,12.00
2023-05-03T15:55:21.173Z,13.60
2023-05-03T15:57:49.075Z,13.20
2023-05-03T16:00:17.415Z,11.80
2023-05-03T16:02:45.461Z,11.80
2023-05-03T16:05:13.463Z,12.70
2023-05-03T16:07:41.450Z,12.50
2023-05-03T16:10:09.903Z,11.30
2023-05-03T16:12:37.861Z,9.40
2023-05-03T16:15:07.680Z,11.90
2023-05-03T16:17:36.747Z,10.90
2023-05-03T16:20:05.886Z,18.30
2023-05-03T16:22:34.041Z,17.80
2023-05-03T16:25:02.085Z,15.20
2023-05-03T16:27:29.988Z,16.50
2023-05-03T16:29:58.360Z,14.30
2023-05-03T16:32:26.591Z,14.70
2023-05-03T16:34:54.568Z,15.90
2023-05-03T16:37:22.541Z,15.00
2023-05-03T16:39:50.458Z,14.60
2023-05-03T16:42:19.005Z,16.00
2023-05-03T16:44:47.581Z,15.10
2023-05-03T16:47:16.082Z,14.90
2023-05-03T16:49:44.065Z,17.90
2023-05-03T16:52:12.684Z,16.80
2023-05-03T16:54:43.049Z,19.80
2023-05-03T16:57:11.016Z,17.80
2023-05-03T16:59:38.916Z,20.00
2023-05-03T17:02:06.900Z,19.40
2023-05-03T17:04:34.903Z,16.40
2023-05-03T17:07:03.144Z,18.40
2023-05-03T17:09:31.360Z,15.80
2023-05-03T17:12:00.128Z,13.70
2023-05-03T17:14:29.442Z,14.20
2023-05-03T17:16:57.535Z,13.90
2023-05-03T17:19:26.834Z,13.80
2023-05-03T17:21:55.089Z,15.80
2023-05-03T17:24:23.328Z,15.70
2023-05-03T17:26:52.194Z,18.30
2023-05-03T17:29:20.247Z,22.20
2023-05-03T17:31:48.284Z,18.20
2023-05-03T17:34:16.237Z,23.30
2023-05-03T17:36:44.218Z,19.50
2023-05-03T17:39:12.132Z,20.30
2023-05-03T17:41:40.200Z,22.50
2023-05-03T17:44:08.178Z,21.30
2023-05-03T17:46:36.581Z,24.70
2023-05-03T17:49:05.073Z,26.80
2023-05-03T17:51:33.028Z,27.90
2023-05-03T17:54:01.203Z,28.30
2023-05-03T17:56:29.169Z,28.50
2023-05-03T17:59:02.646Z,31.00
2023-05-03T18:01:30.714Z,40.10
2023-05-03T18:03:58.840Z,30.30
2023-05-03T18:06:28.200Z,30.30
2023-05-03T18:08:56.075Z,30.00
2023-05-03T18:11:24.141Z,52.80
2023-05-03T18:13:52.049Z,28.70
2023-05-03T18:16:20.033Z,29.00
2023-05-03T18:18:48.062Z,29.20
2023-05-03T18:21:16.585Z,30.40
2023-05-03T18:23:44.632Z,29.10
2023-05-03T18:26:12.611Z,31.10
2023-05-03T18:28:40.556Z,38.70
2023-05-03T18:31:08.581Z,66.20
2023-05-03T18:33:36.628Z,82.10
2023-05-03T18:36:08.998Z,56.80
2023-05-03T18:38:40.558Z,44.10
2023-05-03T18:41:16.046Z,40.30
2023-05-03T18:43:44.940Z,39.30
2023-05-03T18:46:21.766Z,38.20
2023-05-03T18:48:49.855Z,39.60
2023-05-03T18:51:18.306Z,40.30
2023-05-03T18:53:46.280Z,39.60
2023-05-03T18:56:14.550Z,42.90
2023-05-03T18:58:42.469Z,41.00
2023-05-03T19:01:10.512Z,39.10
2023-05-03T19:03:38.514Z,41.90
2023-05-03T19:06:11.467Z,64.20
2023-05-03T19:08:40.832Z,48.70
2023-05-03T19:11:10.236Z,41.60
2023-05-03T19:13:39.252Z,42.20
2023-05-03T19:16:07.365Z,41.40
2023-05-03T19:18:37.462Z,43.90
2023-05-03T19:21:05.345Z,40.90
2023-05-03T19:23:33.312Z,36.30
2023-05-03T19:26:01.355Z,43.80
2023-05-03T19:28:30.621Z,43.40
2023-05-03T19:31:02.465Z,49.80
2023-05-03T19:33:30.694Z,38.30
2023-05-03T19:35:58.895Z,33.30
2023-05-03T19:38:27.655Z,57.20
2023-05-03T19:41:00.509Z,42.50
2023-05-03T19:43:28.382Z,33.90
2023-05-03T19:45:56.484Z,53.70
2023-05-03T19:48:24.383Z,51.30
2023-05-03T19:50:54.029Z,44.50
2023-05-03T19:53:21.984Z,46.60
2023-05-03T19:56:01.429Z,41.50
2023-05-03T19:58:29.402Z,38.50
2023-05-03T20:00:58.099Z,36.30
2023-05-03T20:03:26.167Z,39.00
2023-05-03T20:05:54.528Z,36.70
2023-05-03T20:08:22.641Z,37.70
2023-05-03T20:10:51.329Z,55.50
2023-05-03T20:13:19.470Z,43.50
2023-05-03T20:15:49.306Z,37.20
2023-05-03T20:18:17.485Z,38.00
2023-05-03T20:20:46.508Z,36.10
2023-05-03T20:23:17.629Z,31.20
2023-05-03T20:25:45.597Z,33.80
2023-05-03T20:28:13.481Z,33.20
2023-05-03T20:30:41.623Z,34.20
2023-05-03T20:33:10.237Z,35.30
2023-05-03T20:35:38.419Z,38.80
2023-05-03T20:38:06.591Z,39.90
2023-05-03T20:40:34.681Z,46.70
2023-05-03T20:43:02.765Z,50.60
2023-05-03T20:45:30.762Z,57.90
2023-05-03T20:47:58.806Z,63.20
2023-05-03T20:50:27.522Z,72.70
2023-05-03T20:52:56.676Z,60.60
2023-05-03T20:55:24.638Z,73.20
2023-05-03T20:57:52.583Z,56.90
2023-05-03T21:00:22.330Z,65.00
2023-05-03T21:02:53.696Z,65.70
2023-05-03T21:05:22.107Z,71.00
2023-05-03T21:07:50.025Z,56.50
2023-05-03T21:10:17.923Z,56.60
2023-05-03T21:12:46.120Z,58.10
2023-05-03T21:15:14.021Z,66.40
2023-05-03T21:17:42.586Z,60.70
2023-05-03T21:20:10.930Z,59.40
2023-05-03T21:22:38.928Z,60.40
2023-05-03T21:25:07.469Z,65.30
2023-05-03T21:27:35.382Z,69.90
2023-05-03T21:30:03.605Z,72.20
2023-05-03T21:32:31.754Z,63.60
2023-05-03T21:34:59.730Z,65.40
2023-05-03T21:37:27.640Z,61.10
2023-05-03T21:40:02.069Z,59.50
2023-05-03T21:42:30.915Z,64.30
2023-05-03T21:44:59.164Z,66.60
2023-05-03T21:47:27.925Z,63.00
2023-05-03T21:49:55.976Z,54.50
2023-05-03T21:52:23.936Z,52.90
2023-05-03T21:54:52.687Z,48.20
2023-05-03T21:57:20.574Z,51.30
2023-05-03T21:59:49.486Z,48.50
2023-05-03T22:02:17.784Z,59.60
2023-05-03T22:04:47.405Z,41.70
2023-05-03T22:07:15.549Z,46.50
2023-05-03T22:09:47.599Z,46.80
2023-05-03T22:14:47.692Z,60.50
2023-05-03T22:17:15.697Z,65.00
2023-05-03T22:19:43.749Z,60.80
2023-05-03T22:22:11.668Z,40.90
2023-05-03T22:24:40.856Z,40.60
2023-05-03T22:27:08.839Z,29.30
2023-05-03T22:29:37.526Z,27.30
2023-05-03T22:32:06.995Z,29.70
2023-05-03T22:34:35.208Z,47.30
2023-05-03T22:37:03.259Z,59.80
2023-05-03T22:39:31.187Z,81.60
2023-05-03T22:41:59.215Z,36.60
2023-05-03T22:44:27.176Z,30.90
2023-05-03T22:46:55.685Z,24.50
2023-05-03T22:49:24.184Z,22.70
2023-05-03T22:51:52.145Z,19.50
2023-05-03T22:54:22.030Z,24.70
2023-05-03T22:56:50.740Z,27.40
2023-05-03T22:59:18.708Z,19.30
2023-05-03T23:01:49.635Z,17.20
2023-05-03T23:04:17.949Z,87.00
2023-05-03T23:06:45.890Z,65.70
2023-05-03T23:09:13.771Z,23.90
2023-05-03T23:11:41.693Z,24.40
2023-05-03T23:14:09.638Z,24.20
2023-05-03T23:16:38.904Z,18.50
2023-05-03T23:19:06.898Z,20.70
2023-05-03T23:21:34.821Z,20.50
2023-05-03T23:24:02.751Z,22.20
2023-05-03T23:26:30.710Z,20.40
2023-05-03T23:28:59.526Z,18.10
2023-05-03T23:31:28.590Z,16.70
2023-05-03T23:33:59.296Z,17.20
2023-05-03T23:36:27.946Z,15.40
2023-05-03T23:38:55.944Z,12.30
2023-05-03T23:41:23.841Z,12.50
2023-05-03T23:43:52.003Z,12.80
2023-05-03T23:46:20.022Z,15.60
2023-05-03T23:48:48.001Z,19.50
2023-05-03T23:51:15.926Z,17.10
2023-05-03T23:53:44.197Z,16.20
2023-05-03T23:56:12.538Z,14.50
2023-05-03T23:58:40.779Z,14.30
